createdAt,value
2023-01-12T00:02:13.232Z,3.30
2023-01-12T00:04:41.647Z,3.30
2023-01-12T00:07:10.411Z,3.30
2023-01-12T00:09:38.758Z,3.20
2023-01-12T00:12:07.720Z,3.20
2023-01-12T00:14:37.714Z,3.20
2023-01-12T00:17:06.451Z,3.20
2023-01-12T00:19:37.012Z,3.20
2023-01-12T00:22:09.673Z,3.20
2023-01-12T00:24:38.828Z,3.20
2023-01-12T00:27:07.841Z,3.20
2023-01-12T00:29:37.829Z,3.30
2023-01-12T00:32:06.580Z,3.30
2023-01-12T00:34:34.865Z,3.40
2023-01-12T00:37:04.001Z,3.30
2023-01-12T00:39:32.378Z,3.30
2023-01-12T00:42:18.119Z,3.30
2023-01-12T00:45:04.978Z,3.30
2023-01-12T00:47:33.198Z,3.20
2023-01-12T00:50:01.568Z,3.20
2023-01-12T00:52:31.387Z,3.20
2023-01-12T00:55:00.258Z,3.20
2023-01-12T00:57:28.879Z,3.20
2023-01-12T01:00:00.320Z,3.20
2023-01-12T01:02:29.148Z,3.20
2023-01-12T01:04:57.416Z,3.30
2023-01-12T01:07:25.702Z,3.30
2023-01-12T01:09:54.172Z,3.30
2023-01-12T01:12:22.350Z,3.30
2023-01-12T01:14:50.615Z,3.30
2023-01-12T01:17:20.259Z,3.20
2023-01-12T01:19:49.159Z,3.20
2023-01-12T01:22:17.492Z,3.20
2023-01-12T01:24:45.656Z,3.20
2023-01-12T01:27:13.935Z,3.20
2023-01-12T01:29:42.218Z,3.20
2023-01-12T01:32:10.360Z,3.20
2023-01-12T01:34:39.906Z,3.20
2023-01-12T01:37:08.211Z,3.20
2023-01-12T01:39:36.396Z,3.20
2023-01-12T01:42:04.655Z,3.20
2023-01-12T01:44:52.291Z,3.20
2023-01-12T01:47:24.946Z,3.10
2023-01-12T01:49:55.639Z,3.10
2023-01-12T01:52:25.446Z,3.00
2023-01-12T01:54:55.299Z,3.00
2023-01-12T01:57:25.818Z,3.00
2023-01-12T01:59:55.685Z,2.90
2023-01-12T02:02:25.779Z,3.00
2023-01-12T02:04:56.843Z,3.00
2023-01-12T02:07:25.431Z,3.00
2023-01-12T02:09:53.627Z,3.00
2023-01-12T02:12:39.429Z,3.00
2023-01-12T02:15:25.148Z,3.00
2023-01-12T02:17:59.485Z,3.00
2023-01-12T02:20:42.599Z,2.90
2023-01-12T02:23:40.736Z,2.80
2023-01-12T02:26:20.598Z,2.70
2023-01-12T02:28:56.337Z,2.60
2023-01-12T02:31:44.360Z,2.60
2023-01-12T02:34:21.415Z,2.60
2023-01-12T02:36:53.675Z,2.60
2023-01-12T02:39:25.851Z,2.60
2023-01-12T02:42:16.050Z,2.50
2023-01-12T02:44:48.734Z,2.50
2023-01-12T02:47:23.568Z,2.50
2023-01-12T02:49:53.846Z,2.50
2023-01-12T02:52:24.778Z,2.50
2023-01-12T02:54:53.511Z,2.50
2023-01-12T02:57:23.330Z,2.50
2023-01-12T02:59:51.994Z,2.50
2023-01-12T03:02:22.629Z,2.60
2023-01-12T03:04:53.248Z,2.50
2023-01-12T03:07:39.040Z,2.50
2023-01-12T03:10:13.859Z,2.50
2023-01-12T03:12:43.042Z,2.40
2023-01-12T03:15:12.778Z,2.40
2023-01-12T03:17:44.045Z,2.40
2023-01-12T03:20:16.595Z,2.40
2023-01-12T03:22:46.767Z,2.30
2023-01-12T03:25:15.994Z,2.40
2023-01-12T03:27:48.344Z,2.30
2023-01-12T03:30:19.242Z,2.30
2023-01-12T03:32:49.146Z,2.30
2023-01-12T03:35:17.783Z,2.30
2023-01-12T03:37:48.385Z,2.30
2023-01-12T03:40:20.358Z,2.30
2023-01-12T03:42:54.872Z,2.30
2023-01-12T03:45:26.735Z,2.30
2023-01-12T03:47:59.305Z,2.20
2023-01-12T03:50:30.302Z,2.30
2023-01-12T03:53:00.188Z,2.20
2023-01-12T03:55:30.152Z,2.20
2023-01-12T03:57:58.858Z,2.20
2023-01-12T04:00:28.013Z,2.20
2023-01-12T04:03:05.411Z,2.20
2023-01-12T04:05:33.563Z,2.20
2023-01-12T04:08:01.797Z,2.10
2023-01-12T04:10:29.967Z,2.10
2023-01-12T04:12:58.175Z,2.10
2023-01-12T04:15:26.511Z,2.10
2023-01-12T04:17:54.815Z,2.10
2023-01-12T04:20:27.308Z,2.20
2023-01-12T04:22:54.672Z,2.10
2023-01-12T04:25:23.820Z,2.10
2023-01-12T04:27:53.585Z,2.20
2023-01-12T04:30:24.600Z,2.10
2023-01-12T04:32:54.875Z,2.20
2023-01-12T04:35:25.310Z,2.20
2023-01-12T04:37:53.728Z,2.20
2023-01-12T04:40:22.331Z,2.20
2023-01-12T04:43:07.428Z,2.20
2023-01-12T04:45:37.360Z,2.20
2023-01-12T04:48:06.372Z,2.20
2023-01-12T04:50:36.190Z,2.20
2023-01-12T04:53:05.062Z,2.20
2023-01-12T04:55:33.882Z,2.20
2023-01-12T04:58:02.243Z,2.20
2023-01-12T05:00:30.358Z,2.20
2023-01-12T05:03:01.071Z,2.20
2023-01-12T05:05:29.563Z,2.20
2023-01-12T05:08:19.212Z,2.20
2023-01-12T05:10:50.547Z,2.20
2023-01-12T05:13:18.740Z,2.10
2023-01-12T05:15:47.059Z,2.10
2023-01-12T05:18:15.640Z,2.10
2023-01-12T05:20:43.794Z,2.10
2023-01-12T05:23:15.851Z,2.20
2023-01-12T05:25:44.096Z,2.20
2023-01-12T05:28:12.448Z,2.10
2023-01-12T05:30:40.595Z,2.20
2023-01-12T05:33:15.897Z,2.10
2023-01-12T05:35:44.229Z,2.10
2023-01-12T05:38:14.135Z,2.10
2023-01-12T05:40:42.345Z,2.00
2023-01-12T05:43:30.115Z,2.00
2023-01-12T05:45:58.631Z,2.00
2023-01-12T05:48:26.948Z,2.00
2023-01-12T05:50:55.068Z,2.00
2023-01-12T05:53:24.646Z,1.90
2023-01-12T05:55:52.977Z,2.00
2023-01-12T05:58:21.102Z,2.00
2023-01-12T06:00:49.367Z,2.00
2023-01-12T06:03:17.781Z,2.00
2023-01-12T06:05:47.782Z,2.00
2023-01-12T06:08:15.874Z,1.90
2023-01-12T06:10:45.606Z,2.00
2023-01-12T06:13:31.527Z,2.00
2023-01-12T06:16:03.764Z,2.00
2023-01-12T06:18:35.394Z,2.00
2023-01-12T06:21:03.945Z,2.10
2023-01-12T06:23:35.379Z,2.00
2023-01-12T06:26:06.298Z,2.00
2023-01-12T06:28:34.893Z,2.10
2023-01-12T06:31:03.810Z,2.10
2023-01-12T06:33:32.206Z,2.10
2023-01-12T06:36:00.783Z,2.10
2023-01-12T06:38:29.806Z,2.00
2023-01-12T06:41:02.340Z,2.00
2023-01-12T06:43:32.043Z,2.10
2023-01-12T06:46:00.557Z,2.00
2023-01-12T06:48:39.191Z,2.10
2023-01-12T06:51:07.797Z,2.10
2023-01-12T06:53:36.018Z,2.10
2023-01-12T06:56:04.258Z,2.10
2023-01-12T06:58:33.870Z,2.00
2023-01-12T07:01:02.405Z,2.10
2023-01-12T07:03:30.572Z,2.10
2023-01-12T07:05:59.543Z,2.00
2023-01-12T07:08:27.901Z,2.00
2023-01-12T07:10:56.112Z,2.10
2023-01-12T07:13:24.549Z,2.10
2023-01-12T07:15:54.167Z,2.10
2023-01-12T07:18:22.328Z,2.10
2023-01-12T07:20:50.509Z,2.10
2023-01-12T07:23:18.684Z,2.20
2023-01-12T07:25:47.116Z,2.30
2023-01-12T07:28:15.428Z,2.30
2023-01-12T07:30:43.847Z,2.30
2023-01-12T07:33:14.477Z,2.40
2023-01-12T07:35:42.955Z,2.40
2023-01-12T07:38:12.450Z,2.40
2023-01-12T07:40:40.827Z,2.50
2023-01-12T07:43:11.747Z,2.50
2023-01-12T07:45:39.929Z,2.50
2023-01-12T07:48:08.450Z,2.60
2023-01-12T07:50:38.299Z,2.60
2023-01-12T07:53:06.702Z,2.60
2023-01-12T07:55:35.262Z,2.70
2023-01-12T07:58:04.604Z,2.60
2023-01-12T08:00:32.816Z,2.60
2023-01-12T08:03:04.706Z,2.70
2023-01-12T08:05:33.137Z,2.70
2023-01-12T08:08:03.716Z,2.70
2023-01-12T08:10:32.199Z,2.70
2023-01-12T08:13:00.484Z,2.80
2023-01-12T08:15:29.059Z,2.80
2023-01-12T08:18:00.959Z,2.70
2023-01-12T08:20:30.324Z,2.70
2023-01-12T08:23:00.209Z,2.70
2023-01-12T08:25:32.623Z,2.70
2023-01-12T08:28:02.553Z,2.70
2023-01-12T08:30:34.042Z,2.70
2023-01-12T08:33:03.851Z,2.70
2023-01-12T08:35:33.814Z,2.70
2023-01-12T08:38:01.999Z,2.80
2023-01-12T08:40:48.311Z,2.80
2023-01-12T08:43:37.599Z,2.80
2023-01-12T08:46:08.098Z,2.80
2023-01-12T08:48:36.561Z,2.80
2023-01-12T08:51:05.282Z,2.80
2023-01-12T08:53:33.476Z,2.80
2023-01-12T08:56:03.225Z,2.90
2023-01-12T08:58:32.109Z,2.90
2023-01-12T09:01:07.594Z,2.90
2023-01-12T09:03:36.162Z,3.20
2023-01-12T09:06:10.046Z,2.80
2023-01-12T09:08:39.507Z,2.80
2023-01-12T09:11:10.037Z,2.80
2023-01-12T09:13:38.280Z,2.90
2023-01-12T09:16:12.599Z,2.80
2023-01-12T09:18:41.438Z,2.80
2023-01-12T09:21:10.731Z,2.80
2023-01-12T09:23:39.254Z,2.80
2023-01-12T09:26:09.521Z,2.80
2023-01-12T09:28:37.991Z,2.90
2023-01-12T09:31:09.467Z,2.80
2023-01-12T09:33:38.041Z,2.90
2023-01-12T09:36:07.474Z,2.90
2023-01-12T09:38:36.729Z,2.90
2023-01-12T09:41:10.927Z,2.80
2023-01-12T09:43:58.594Z,2.90
2023-01-12T09:46:46.218Z,2.90
2023-01-12T09:49:14.825Z,2.90
2023-01-12T09:51:46.821Z,2.90
2023-01-12T09:54:14.967Z,3.00
2023-01-12T09:56:51.874Z,3.10
2023-01-12T09:59:36.775Z,3.00
2023-01-12T10:02:05.276Z,3.00
2023-01-12T10:04:33.613Z,3.10
2023-01-12T10:07:04.851Z,3.10
2023-01-12T10:09:34.810Z,3.10
2023-01-12T10:12:07.336Z,3.00
2023-01-12T10:14:44.960Z,3.00
2023-01-12T10:17:20.096Z,3.00
2023-01-12T10:19:52.820Z,3.00
2023-01-12T10:22:37.675Z,2.90
2023-01-12T10:25:13.002Z,3.00
2023-01-12T10:27:43.169Z,2.90
2023-01-12T10:30:15.451Z,2.90
2023-01-12T10:32:43.840Z,2.90
2023-01-12T10:35:16.631Z,2.90
2023-01-12T10:37:46.066Z,2.90
2023-01-12T10:40:26.876Z,2.90
2023-01-12T10:43:19.660Z,2.80
2023-01-12T10:46:03.209Z,2.80
2023-01-12T10:48:31.561Z,2.90
2023-01-12T10:51:00.836Z,2.90
2023-01-12T10:53:32.153Z,2.80
2023-01-12T10:56:03.886Z,2.90
2023-01-12T10:58:34.853Z,2.90
2023-01-12T11:01:07.030Z,2.90
2023-01-12T11:03:37.534Z,3.00
2023-01-12T11:06:27.150Z,3.00
2023-01-12T11:08:55.690Z,3.00
2023-01-12T11:11:29.473Z,3.10
2023-01-12T11:13:59.279Z,3.10
2023-01-12T11:16:32.248Z,3.20
2023-01-12T11:19:07.586Z,3.20
2023-01-12T11:21:36.950Z,3.20
2023-01-12T11:24:07.095Z,3.10
2023-01-12T11:26:38.786Z,3.10
2023-01-12T11:29:15.195Z,3.10
2023-01-12T11:31:45.488Z,3.00
2023-01-12T11:34:17.502Z,3.00
2023-01-12T11:36:47.623Z,3.00
2023-01-12T11:39:16.610Z,3.00
2023-01-12T11:42:04.504Z,3.00
2023-01-12T11:44:39.324Z,3.00
2023-01-12T11:47:12.711Z,3.00
2023-01-12T11:49:42.846Z,3.00
2023-01-12T11:52:11.912Z,3.00
2023-01-12T11:54:40.558Z,3.00
2023-01-12T11:57:24.686Z,3.00
2023-01-12T12:00:00.905Z,3.00
2023-01-12T12:02:34.347Z,3.00
2023-01-12T12:05:07.711Z,3.00
2023-01-12T12:07:45.339Z,3.10
2023-01-12T12:10:22.551Z,3.10
2023-01-12T12:13:10.675Z,3.10
2023-01-12T12:15:43.793Z,3.10
2023-01-12T12:18:19.342Z,3.10
2023-01-12T12:20:52.279Z,3.10
2023-01-12T12:23:27.038Z,3.10
2023-01-12T12:25:59.510Z,3.10
2023-01-12T12:28:48.236Z,3.00
2023-01-12T12:31:22.407Z,3.00
2023-01-12T12:33:58.254Z,3.10
2023-01-12T12:36:29.435Z,3.10
2023-01-12T12:39:13.722Z,3.10
2023-01-12T12:42:04.048Z,3.10
2023-01-12T12:44:55.899Z,3.20
2023-01-12T12:47:44.339Z,3.20
2023-01-12T12:50:20.101Z,3.10
2023-01-12T12:52:50.775Z,3.20
2023-01-12T12:55:19.105Z,3.20
2023-01-12T12:57:59.687Z,3.30
2023-01-12T13:00:42.638Z,3.20
2023-01-12T13:03:11.254Z,3.30
2023-01-12T13:05:45.102Z,3.30
2023-01-12T13:08:24.027Z,3.30
2023-01-12T13:10:56.237Z,3.40
2023-01-12T13:13:29.249Z,3.40
2023-01-12T13:16:18.148Z,3.40
2023-01-12T13:19:05.084Z,3.40
2023-01-12T13:21:56.365Z,3.40
2023-01-12T13:24:28.784Z,3.40
2023-01-12T13:27:00.649Z,3.40
2023-01-12T13:29:41.929Z,3.30
2023-01-12T13:32:28.607Z,3.30
2023-01-12T13:34:56.955Z,3.30
2023-01-12T13:37:32.110Z,3.30
2023-01-12T13:40:05.445Z,3.30
2023-01-12T13:42:52.086Z,3.30
2023-01-12T13:45:22.281Z,3.30
2023-01-12T13:47:51.816Z,3.30
2023-01-12T13:50:20.965Z,3.30
2023-01-12T13:52:59.200Z,3.30
2023-01-12T13:55:28.974Z,3.30
2023-01-12T13:58:00.991Z,3.30
2023-01-12T14:00:29.862Z,3.30
2023-01-12T14:02:58.364Z,3.30
2023-01-12T14:05:32.706Z,3.30
2023-01-12T14:08:08.566Z,3.30
2023-01-12T14:10:39.300Z,3.30
2023-01-12T14:13:22.140Z,3.40
2023-01-12T14:16:07.895Z,3.40
2023-01-12T14:18:43.429Z,3.40
2023-01-12T14:21:21.428Z,3.40
2023-01-12T14:23:53.713Z,3.50
2023-01-12T14:26:24.070Z,3.50
2023-01-12T14:28:53.391Z,3.50
2023-01-12T14:31:25.736Z,3.50
2023-01-12T14:33:56.339Z,3.60
2023-01-12T14:36:25.974Z,3.60
2023-01-12T14:39:04.930Z,3.60
2023-01-12T14:41:50.420Z,3.60
2023-01-12T14:44:36.995Z,3.60
2023-01-12T14:47:05.225Z,3.60
2023-01-12T14:49:34.750Z,3.60
2023-01-12T14:52:03.568Z,3.60
2023-01-12T14:54:33.873Z,3.60
2023-01-12T14:57:03.890Z,3.60
2023-01-12T14:59:33.330Z,3.60
2023-01-12T15:02:19.943Z,3.60
2023-01-12T15:04:52.530Z,3.60
2023-01-12T15:07:21.303Z,3.60
2023-01-12T15:09:55.703Z,3.60
2023-01-12T15:12:39.133Z,3.60
2023-01-12T15:15:28.187Z,3.60
2023-01-12T15:18:14.200Z,3.60
2023-01-12T15:21:00.605Z,3.50
2023-01-12T15:23:47.482Z,3.60
2023-01-12T15:26:17.218Z,3.50
2023-01-12T15:28:46.111Z,3.50
2023-01-12T15:31:20.315Z,3.60
2023-01-12T15:33:48.479Z,3.60
2023-01-12T15:36:16.915Z,3.60
2023-01-12T15:38:46.392Z,3.60
2023-01-12T15:41:18.819Z,3.60
2023-01-12T15:43:49.350Z,3.60
2023-01-12T15:46:19.220Z,3.60
2023-01-12T15:48:47.435Z,3.60
2023-01-12T15:51:16.375Z,3.70
2023-01-12T15:53:44.704Z,3.60
2023-01-12T15:56:15.462Z,3.60
2023-01-12T15:58:45.003Z,3.60
2023-01-12T16:01:17.136Z,3.60
2023-01-12T16:04:07.273Z,3.60
2023-01-12T16:06:34.355Z,3.60
2023-01-12T16:09:02.490Z,3.60
2023-01-12T16:11:30.696Z,3.60
2023-01-12T16:14:02.897Z,3.60
2023-01-12T16:16:31.579Z,3.60
2023-01-12T16:19:01.488Z,3.50
2023-01-12T16:21:30.046Z,3.50
2023-01-12T16:23:58.311Z,3.50
2023-01-12T16:26:26.726Z,3.50
2023-01-12T16:28:54.959Z,3.50
2023-01-12T16:31:25.181Z,3.50
2023-01-12T16:33:53.377Z,3.50
2023-01-12T16:36:21.804Z,3.50
2023-01-12T16:38:51.707Z,3.50
2023-01-12T16:41:22.343Z,3.50
2023-01-12T16:43:50.628Z,3.50
2023-01-12T16:46:19.018Z,3.50
2023-01-12T16:48:48.777Z,3.50
2023-01-12T16:51:18.084Z,3.50
2023-01-12T16:53:46.681Z,3.50
2023-01-12T16:56:17.134Z,3.50
2023-01-12T16:58:48.605Z,3.40
2023-01-12T17:01:18.327Z,3.40
2023-01-12T17:03:48.328Z,3.50
2023-01-12T17:06:18.921Z,3.50
2023-01-12T17:08:47.162Z,3.40
2023-01-12T17:11:19.314Z,3.50
2023-01-12T17:13:52.105Z,3.50
2023-01-12T17:16:21.066Z,3.50
2023-01-12T17:18:53.798Z,3.50
2023-01-12T17:21:22.842Z,3.50
2023-01-12T17:23:51.091Z,3.50
2023-01-12T17:26:19.828Z,3.50
2023-01-12T17:28:48.657Z,3.50
2023-01-12T17:31:17.905Z,3.50
2023-01-12T17:33:46.692Z,3.50
2023-01-12T17:36:19.828Z,3.50
2023-01-12T17:38:48.174Z,3.50
2023-01-12T17:41:31.558Z,3.50
2023-01-12T17:44:00.120Z,3.50
2023-01-12T17:46:28.311Z,3.50
2023-01-12T17:48:58.680Z,3.40
2023-01-12T17:51:29.961Z,3.50
2023-01-12T17:53:58.823Z,3.40
2023-01-12T17:56:28.148Z,3.40
2023-01-12T17:58:56.813Z,3.40
2023-01-12T18:01:25.785Z,3.40
2023-01-12T18:03:54.324Z,3.40
2023-01-12T18:06:26.730Z,3.40
2023-01-12T18:08:57.603Z,3.40
2023-01-12T18:11:25.742Z,3.40
2023-01-12T18:13:54.394Z,3.40
2023-01-12T18:16:22.858Z,3.40
2023-01-12T18:18:51.699Z,3.40
2023-01-12T18:21:21.242Z,3.40
2023-01-12T18:23:50.006Z,3.40
2023-01-12T18:26:20.427Z,3.40
2023-01-12T18:28:48.922Z,3.40
2023-01-12T18:31:17.989Z,3.40
2023-01-12T18:33:49.090Z,3.40
2023-01-12T18:36:18.293Z,3.40
2023-01-12T18:38:46.433Z,3.40
2023-01-12T18:41:32.249Z,3.40
2023-01-12T18:44:02.564Z,3.40
2023-01-12T18:46:51.094Z,3.40
2023-01-12T18:49:20.915Z,3.40
2023-01-12T18:52:06.613Z,3.30
2023-01-12T18:54:35.493Z,3.30
2023-01-12T18:57:03.779Z,3.30
2023-01-12T18:59:33.547Z,3.30
2023-01-12T19:02:01.812Z,3.30
2023-01-12T19:04:52.773Z,3.30
2023-01-12T19:07:29.297Z,3.20
2023-01-12T19:09:56.989Z,3.20
2023-01-12T19:12:25.349Z,3.20
2023-01-12T19:15:12.332Z,3.20
2023-01-12T19:17:42.104Z,3.00
2023-01-12T19:20:12.002Z,3.00
2023-01-12T19:22:57.458Z,2.90
2023-01-12T19:25:43.360Z,2.90
2023-01-12T19:28:34.366Z,2.80
2023-01-12T19:31:05.208Z,2.80
2023-01-12T19:33:33.546Z,2.70
2023-01-12T19:36:05.873Z,2.60
2023-01-12T19:38:34.259Z,2.60
2023-01-12T19:41:11.065Z,2.60
2023-01-12T19:43:45.396Z,2.60
2023-01-12T19:46:15.395Z,2.60
2023-01-12T19:48:44.645Z,2.60
2023-01-12T19:51:12.853Z,2.60
2023-01-12T19:53:41.599Z,2.60
2023-01-12T19:56:10.180Z,2.60
2023-01-12T19:58:38.750Z,2.60
2023-01-12T20:01:07.085Z,2.70
2023-01-12T20:03:39.900Z,2.70
2023-01-12T20:06:08.782Z,2.70
2023-01-12T20:08:37.247Z,2.70
2023-01-12T20:11:05.787Z,2.70
2023-01-12T20:13:34.545Z,2.80
2023-01-12T20:16:07.382Z,2.80
2023-01-12T20:18:39.604Z,2.80
2023-01-12T20:21:11.356Z,2.70
2023-01-12T20:23:39.652Z,2.80
2023-01-12T20:26:09.245Z,2.80
2023-01-12T20:28:37.700Z,2.80
2023-01-12T20:31:11.331Z,2.80
2023-01-12T20:33:41.392Z,2.80
2023-01-12T20:36:10.750Z,2.80
2023-01-12T20:38:38.955Z,2.90
2023-01-12T20:41:10.269Z,2.90
2023-01-12T20:43:38.612Z,2.90
2023-01-12T20:46:08.500Z,2.90
2023-01-12T20:48:36.936Z,2.90
2023-01-12T20:51:08.903Z,2.90
2023-01-12T20:53:37.546Z,2.90
2023-01-12T20:56:05.905Z,2.90
2023-01-12T20:58:34.124Z,2.80
2023-01-12T21:01:02.584Z,2.80
2023-01-12T21:03:30.838Z,2.80
2023-01-12T21:06:00.218Z,2.80
2023-01-12T21:08:29.779Z,2.80
2023-01-12T21:10:59.832Z,2.80
2023-01-12T21:13:27.998Z,2.80
2023-01-12T21:15:59.934Z,2.80
2023-01-12T21:18:28.339Z,2.80
2023-01-12T21:20:58.335Z,2.80
2023-01-12T21:23:27.084Z,2.80
2023-01-12T21:25:56.799Z,2.80
2023-01-12T21:28:24.971Z,2.80
2023-01-12T21:30:53.246Z,2.70
2023-01-12T21:33:28.955Z,2.80
2023-01-12T21:35:57.199Z,2.70
2023-01-12T21:38:25.894Z,2.70
2023-01-12T21:40:54.056Z,2.70
2023-01-12T21:43:23.727Z,2.70
2023-01-12T21:45:53.092Z,2.70
2023-01-12T21:48:22.217Z,2.70
2023-01-12T21:50:50.684Z,2.60
2023-01-12T21:53:20.276Z,2.70
2023-01-12T21:55:58.402Z,2.70
2023-01-12T21:58:28.895Z,2.60
2023-01-12T22:00:57.400Z,2.60
2023-01-12T22:03:25.734Z,3.10
2023-01-12T22:05:54.233Z,2.70
2023-01-12T22:08:22.866Z,2.60
2023-01-12T22:10:51.136Z,2.60
2023-01-12T22:13:19.532Z,2.60
2023-01-12T22:15:51.090Z,2.60
2023-01-12T22:18:19.495Z,2.60
2023-01-12T22:20:48.940Z,2.60
2023-01-12T22:23:17.225Z,2.60
2023-01-12T22:25:54.168Z,2.60
2023-01-12T22:28:22.523Z,2.60
2023-01-12T22:30:52.820Z,2.60
2023-01-12T22:33:21.077Z,2.60
2023-01-12T22:35:49.271Z,2.60
2023-01-12T22:38:17.484Z,2.60
2023-01-12T22:40:45.753Z,2.50
2023-01-12T22:43:29.495Z,2.60
2023-01-12T22:45:59.229Z,2.50
2023-01-12T22:48:27.922Z,2.50
2023-01-12T22:50:56.184Z,2.40
2023-01-12T22:53:25.232Z,2.40
2023-01-12T22:55:53.585Z,2.40
2023-01-12T22:58:21.814Z,2.40
2023-01-12T23:00:49.958Z,2.40
2023-01-12T23:03:20.050Z,2.40
2023-01-12T23:05:56.491Z,2.40
2023-01-12T23:08:25.208Z,2.40
2023-01-12T23:10:53.836Z,2.40
2023-01-12T23:13:22.423Z,2.40
2023-01-12T23:15:52.493Z,2.40
2023-01-12T23:18:23.280Z,2.40
2023-01-12T23:20:54.468Z,2.50
2023-01-12T23:23:22.573Z,2.50
2023-01-12T23:25:50.739Z,2.50
2023-01-12T23:28:19.077Z,2.50
2023-01-12T23:30:47.249Z,2.50
2023-01-12T23:33:15.471Z,2.50
2023-01-12T23:35:45.237Z,2.40
2023-01-12T23:38:15.593Z,2.40
2023-01-12T23:40:43.859Z,2.40
2023-01-12T23:43:11.958Z,2.40
2023-01-12T23:45:40.095Z,2.30
2023-01-12T23:48:08.478Z,2.30
2023-01-12T23:50:36.547Z,2.40
2023-01-12T23:53:06.437Z,2.40
2023-01-12T23:55:34.626Z,2.40
2023-01-12T23:58:06.039Z,2.40
